createdAt,value
2022-07-26T00:03:39.384Z,19.34
2022-07-26T00:13:42.358Z,18.94
2022-07-26T00:23:45.329Z,18.80
2022-07-26T00:33:48.302Z,18.81
2022-07-26T00:43:58.868Z,18.65
2022-07-26T00:54:01.375Z,18.60
2022-07-26T01:04:07.627Z,18.51
2022-07-26T01:14:10.821Z,18.33
2022-07-26T01:24:14.429Z,18.31
2022-07-26T01:34:17.301Z,18.26
2022-07-26T01:44:23.158Z,18.09
2022-07-26T01:54:26.331Z,17.98
2022-07-26T02:04:47.946Z,18.00
2022-07-26T02:14:50.653Z,17.76
2022-07-26T02:24:53.370Z,17.72
2022-07-26T02:34:56.297Z,17.61
2022-07-26T02:44:59.365Z,17.57
2022-07-26T02:55:02.283Z,17.60
2022-07-26T03:05:05.780Z,17.29
2022-07-26T03:15:09.984Z,17.47
2022-07-26T03:25:12.561Z,17.43
2022-07-26T03:35:15.324Z,17.58
2022-07-26T03:45:20.561Z,17.57
2022-07-26T03:55:42.007Z,17.69
2022-07-26T04:05:48.931Z,18.16
2022-07-26T04:15:52.431Z,18.59
2022-07-26T04:25:55.290Z,18.78
2022-07-26T04:35:58.268Z,19.18
2022-07-26T04:46:00.967Z,19.48
2022-07-26T04:56:04.363Z,19.74
2022-07-26T05:06:07.461Z,20.18
2022-07-26T05:16:11.571Z,20.72
2022-07-26T05:26:15.591Z,21.35
2022-07-26T05:36:18.582Z,22.21
2022-07-26T05:46:20.976Z,23.00
2022-07-26T05:56:23.608Z,23.92
2022-07-26T06:06:26.322Z,24.60
2022-07-26T06:16:29.366Z,25.60
2022-07-26T06:26:32.500Z,26.04
2022-07-26T06:36:35.454Z,27.33
2022-07-26T06:46:38.011Z,27.65
2022-07-26T06:56:40.396Z,28.50
2022-07-26T07:06:42.953Z,28.91
2022-07-26T07:16:48.069Z,29.15
2022-07-26T07:26:50.650Z,30.16
2022-07-26T07:36:54.115Z,30.45
2022-07-26T07:46:56.999Z,31.02
2022-07-26T07:56:59.657Z,31.18
2022-07-26T08:07:02.607Z,31.76
2022-07-26T08:17:05.157Z,31.95
2022-07-26T08:27:07.701Z,32.60
2022-07-26T08:37:18.118Z,32.82
2022-07-26T08:47:37.567Z,33.27
2022-07-26T08:57:43.477Z,33.91
2022-07-26T09:07:45.932Z,34.06
2022-07-26T09:17:51.056Z,34.98
2022-07-26T09:27:54.151Z,34.70
2022-07-26T09:37:56.909Z,35.62
2022-07-26T09:47:59.539Z,35.89
2022-07-26T09:58:04.982Z,36.34
2022-07-26T10:08:08.443Z,36.20
2022-07-26T10:18:32.399Z,36.30
2022-07-26T10:28:37.002Z,36.32
2022-07-26T10:38:40.207Z,37.22
2022-07-26T10:49:08.569Z,36.96
2022-07-26T10:59:10.964Z,37.44
2022-07-26T11:09:14.042Z,37.73
2022-07-26T11:19:21.398Z,38.09
2022-07-26T11:29:38.999Z,38.77
2022-07-26T11:39:43.915Z,37.92
2022-07-26T11:50:00.693Z,38.40
2022-07-26T12:00:13.035Z,36.24
2022-07-26T12:10:16.919Z,38.95
2022-07-26T12:20:19.420Z,38.49
2022-07-26T12:30:25.747Z,38.40
2022-07-26T12:40:41.424Z,37.07
2022-07-26T12:50:44.222Z,35.08
2022-07-26T13:00:46.753Z,35.16
2022-07-26T13:10:49.324Z,34.78
2022-07-26T13:20:51.719Z,34.29
2022-07-26T13:30:54.256Z,30.66
2022-07-26T13:40:56.853Z,30.05
2022-07-26T13:50:59.889Z,29.58
2022-07-26T14:01:03.291Z,29.29
2022-07-26T14:11:05.834Z,29.02
2022-07-26T14:21:10.690Z,27.86
2022-07-26T14:31:13.728Z,27.41
2022-07-26T14:41:16.580Z,26.54
2022-07-26T14:51:20.081Z,26.39
2022-07-26T15:01:22.623Z,26.53
2022-07-26T15:11:25.300Z,26.09
2022-07-26T15:21:29.875Z,25.65
2022-07-26T15:31:37.133Z,25.20
2022-07-26T15:41:40.339Z,25.66
2022-07-26T15:51:43.407Z,25.68
2022-07-26T16:01:46.177Z,25.54
2022-07-26T16:11:50.489Z,25.58
2022-07-26T16:21:53.005Z,25.98
2022-07-26T16:31:56.334Z,26.13
2022-07-26T16:42:04.701Z,26.01
2022-07-26T16:52:10.057Z,26.12
2022-07-26T17:02:12.790Z,26.50
2022-07-26T17:12:15.164Z,26.18
2022-07-26T17:22:18.193Z,26.36
2022-07-26T17:32:20.685Z,26.30
2022-07-26T17:42:23.158Z,26.02
2022-07-26T17:52:25.439Z,25.79
2022-07-26T18:02:27.828Z,25.60
2022-07-26T18:12:30.775Z,25.36
2022-07-26T18:22:33.295Z,24.87
2022-07-26T18:32:35.766Z,24.65
2022-07-26T18:42:38.183Z,24.40
2022-07-26T18:52:40.560Z,24.21
2022-07-26T19:02:44.397Z,24.30
2022-07-26T19:12:48.618Z,24.36
2022-07-26T19:22:51.281Z,24.34
2022-07-26T19:32:53.761Z,24.00
2022-07-26T19:42:56.280Z,23.98
2022-07-26T19:52:58.679Z,23.88
2022-07-26T20:03:02.024Z,23.69
2022-07-26T20:13:04.577Z,23.50
2022-07-26T20:23:10.999Z,23.59
2022-07-26T20:33:16.727Z,23.56
2022-07-26T20:43:21.708Z,23.43
2022-07-26T20:53:24.244Z,23.37
2022-07-26T21:03:26.598Z,23.36
2022-07-26T21:13:29.473Z,23.23
2022-07-26T21:23:31.821Z,23.00
2022-07-26T21:33:34.252Z,22.38
2022-07-26T21:43:36.904Z,21.98
2022-07-26T21:53:39.231Z,22.01
2022-07-26T22:03:42.338Z,21.70
2022-07-26T22:13:45.148Z,21.66
2022-07-26T22:23:47.479Z,21.35
2022-07-26T22:33:50.252Z,21.05
2022-07-26T22:43:53.227Z,20.81
2022-07-26T22:53:55.680Z,20.53
2022-07-26T23:03:58.268Z,19.80
2022-07-26T23:14:00.883Z,20.10
2022-07-26T23:24:03.290Z,20.13
2022-07-26T23:34:05.860Z,20.29
2022-07-26T23:44:09.269Z,20.38
2022-07-26T23:54:11.662Z,20.25
